»·PEaware :: N27JP KSNA-KBUR

N27JP :: KSNA-KBUR

FLIGHT INFORMATION

Flight Status: Arrived
Operator: Privately registered:
United States
More flights under this callsign
Pilot: Weston J. (31543)
Aircraft: CESSNA 172 SKYHAWK
(C172)
More flights by this aircraft type
Origin: KSNA John Wayne-Orange Co
United States
Destination: KBUR Bob Hope-Burbank
United States
More flights between these airports :: More routes between these airports
Route: SLI V23 POPPR SMO125 SMO SMO311 SILEX
File this flight plan on PilotEdge
Remarks: TEC route CSTP1
Altitude:
(Current/Filed)
4,000ft
Speed:
(Current/Filed)
110kts
Departed: 06-Dec-20 09:27 AM
Arrived: 06-Dec-20 10:06 AM
Distance/Time
Traveled:
40nm/0:39
Distance/Time
To Go:
Arrived

Flight Plot

Page will automatically refresh every two minutes.


Map Options




Map Legend


Flown Route
Filed Route
Departure Airport
Arrival Airport
Navaid (VOR, NDB)
Fix

Horizontal Profiles

Position Reports

Time Latitude Longitude Heading Altitude Ground
Speed
06-Dec-20 08:57 33.672603 -117.873188 208 60ft 0kts
06-Dec-20 08:58 33.672603 -117.873188 208 60ft 0kts
06-Dec-20 08:59 33.672603 -117.873188 208 60ft 0kts
06-Dec-20 09:00 33.672603 -117.873188 208 60ft 0kts
06-Dec-20 09:01 33.672603 -117.873188 208 60ft 0kts
06-Dec-20 09:02 33.672603 -117.873188 208 60ft 0kts
06-Dec-20 09:03 33.672603 -117.873188 208 60ft 0kts
06-Dec-20 09:04 33.672603 -117.873188 208 60ft 0kts
06-Dec-20 09:05 33.672603 -117.873188 208 60ft 0kts
06-Dec-20 09:06 33.672603 -117.873188 208 60ft 0kts
06-Dec-20 09:07 33.672603 -117.873188 208 60ft 0kts
06-Dec-20 09:08 33.672603 -117.873188 208 60ft 0kts
06-Dec-20 09:09 33.672603 -117.873188 208 60ft 0kts
06-Dec-20 09:10 33.672603 -117.873188 208 60ft 0kts
06-Dec-20 09:11 33.672603 -117.873188 208 60ft 0kts
06-Dec-20 09:12 33.672603 -117.873188 208 60ft 0kts
06-Dec-20 09:13 33.672603 -117.873188 208 60ft 0kts
06-Dec-20 09:14 33.672603 -117.873188 208 60ft 0kts
06-Dec-20 09:15 33.672603 -117.873188 208 60ft 0kts
06-Dec-20 09:16 33.672603 -117.873188 208 60ft 0kts
06-Dec-20 09:17 33.672603 -117.873188 208 60ft 0kts
06-Dec-20 09:18 33.672603 -117.873188 208 60ft 0kts
06-Dec-20 09:19 33.672603 -117.873188 208 60ft 0kts
06-Dec-20 09:20 33.672590 -117.873195 202 60ft 0kts
06-Dec-20 09:21 33.672615 -117.872259 23 60ft 9kts
06-Dec-20 09:22 33.677325 -117.869295 27 60ft 24kts
06-Dec-20 09:23 33.681226 -117.866461 111 60ft 0kts
06-Dec-20 09:24 33.681226 -117.866461 111 60ft 0kts
06-Dec-20 09:25 33.680552 -117.865763 204 60ft 0kts
06-Dec-20 09:26 33.664320 -117.875741 211 461ft 101kts
06-Dec-20 09:27 33.646305 -117.901212 231 1354ft 94kts
06-Dec-20 09:28 33.630151 -117.925181 232 1996ft 109kts
06-Dec-20 09:29 33.609461 -117.957837 254 1986ft 126kts
06-Dec-20 09:30 33.614327 -117.999497 282 2006ft 124kts
06-Dec-20 09:31 33.620396 -118.037268 282 2583ft 110kts
06-Dec-20 09:32 33.627661 -118.071533 315 3174ft 104kts
06-Dec-20 09:33 33.648763 -118.092894 321 3766ft 96kts
06-Dec-20 09:34 33.670896 -118.114800 322 3985ft 115kts
06-Dec-20 09:35 33.696349 -118.139949 322 3982ft 119kts
06-Dec-20 09:36 33.722060 -118.165530 322 3983ft 120kts
06-Dec-20 09:37 33.747796 -118.191245 322 3975ft 120kts
06-Dec-20 09:38 33.773511 -118.217015 322 3976ft 120kts
06-Dec-20 09:39 33.799311 -118.242904 322 3974ft 117kts
06-Dec-20 09:40 33.822836 -118.266481 322 3978ft 108kts
06-Dec-20 09:41 33.846115 -118.289876 322 3979ft 108kts
06-Dec-20 09:42 33.869721 -118.313627 322 3980ft 108kts
06-Dec-20 09:43 33.893676 -118.337755 322 3980ft 108kts
06-Dec-20 09:44 33.918349 -118.362722 321 3983ft 121kts
06-Dec-20 09:45 33.943940 -118.388549 322 3980ft 119kts
06-Dec-20 09:46 33.969390 -118.414278 320 3978ft 119kts
06-Dec-20 09:47 33.994188 -118.441021 313 3975ft 120kts
06-Dec-20 09:48 34.016011 -118.471304 313 3978ft 119kts
06-Dec-20 09:49 34.037830 -118.501691 313 3979ft 119kts
06-Dec-20 09:50 34.060657 -118.533438 313 3979ft 120kts
06-Dec-20 09:51 34.083403 -118.565001 313 3980ft 120kts
06-Dec-20 09:52 34.105358 -118.595423 313 3981ft 120kts
06-Dec-20 09:53 34.127054 -118.626591 313 3992ft 121kts
06-Dec-20 09:54 34.151324 -118.652671 3 3998ft 118kts
06-Dec-20 09:55 34.173584 -118.626176 23 3980ft 117kts
06-Dec-20 09:56 34.202929 -118.617759 66 3997ft 118kts
06-Dec-20 09:57 34.199790 -118.577766 89 3810ft 124kts
06-Dec-20 09:58 34.199611 -118.540978 91 3252ft 85kts
06-Dec-20 09:59 34.199532 -118.511878 90 2990ft 90kts
06-Dec-20 10:00 34.199075 -118.481442 92 2846ft 92kts
06-Dec-20 10:01 34.198596 -118.449286 92 2088ft 98kts
06-Dec-20 10:02 34.198527 -118.419489 92 1572ft 79kts
06-Dec-20 10:03 34.198070 -118.394312 91 1203ft 74kts
06-Dec-20 10:04 34.197941 -118.370650 89 804ft 62kts
06-Dec-20 10:05 34.198568 -118.360258 2 722ft 3kts
06-Dec-20 10:06 34.199724 -118.360239 2 726ft 0kts
06-Dec-20 10:07 34.199724 -118.360239 2 726ft 0kts

Navigation Log

Ident Type
Flight plan parsing failed, navigation log unavailable